Time;durP1;ratioP1;P1;durP2;ratioP2;P2;SDS_P1;SDS_P2;PMS_P1;PMS_P2;Temp;Humidity;BMP_temperature;BMP_pressure;BME280_temperature;BME280_humidity;BME280_pressure;Samples;Min_cycle;Max_cycle;Signal;HPM_P1;HPM_P2
2022/01/22 00:01:45;;;;;;;0.30;0.30;;;;;;;18.54;39.35;102843.84;5147418;27;20043;-27
2022/01/22 00:04:11;;;;;;;0.30;0.30;;;;;;;18.54;39.26;102844.66;5145518;27;20193;-27
2022/01/22 00:06:36;;;;;;;0.30;0.30;;;;;;;18.52;39.29;102846.84;5138320;27;20047;-27
2022/01/22 00:09:03;;;;;;;0.30;0.30;;;;;;;18.55;39.28;102853.78;5138349;27;20057;-27
2022/01/22 00:11:35;;;;;;;0.20;0.20;;;;;;;18.53;39.42;102848.50;5135277;27;20042;-27
2022/01/22 00:14:31;;;;;;;0.30;0.30;;;;;;;18.54;39.30;102854.88;5138329;27;20039;-27
2022/01/22 00:16:46;;;;;;;0.30;0.30;;;;;;;18.53;39.34;102854.03;5107888;27;20057;-27
2022/01/22 00:19:12;;;;;;;0.30;0.30;;;;;;;18.52;39.30;102851.47;5141470;27;20043;-27
2022/01/22 00:21:37;;;;;;;0.20;0.20;;;;;;;18.53;39.35;102856.78;5144693;27;20046;-27
2022/01/22 00:24:05;;;;;;;0.30;0.30;;;;;;;18.52;39.46;102857.00;5143555;27;20047;-27
2022/01/22 00:26:31;;;;;;;0.22;0.22;;;;;;;18.53;39.43;102854.03;5145511;27;20060;-27
2022/01/22 00:28:56;;;;;;;0.30;0.30;;;;;;;18.52;39.29;102855.13;5144337;27;20039;-27
2022/01/22 00:31:22;;;;;;;0.30;0.30;;;;;;;18.52;39.10;102855.13;5146026;27;20043;-27
2022/01/22 00:33:48;;;;;;;0.30;0.30;;;;;;;18.53;39.39;102850.44;5144553;27;20135;-27
2022/01/22 00:36:13;;;;;;;0.30;0.30;;;;;;;18.52;38.87;102860.63;5145898;27;20041;-27
2022/01/22 00:38:39;;;;;;;0.20;0.20;;;;;;;18.53;39.33;102859.56;5142663;27;20104;-27
2022/01/22 00:41:05;;;;;;;0.30;0.30;;;;;;;18.52;39.33;102846.84;5126565;27;20047;-27
2022/01/22 00:43:31;;;;;;;0.30;0.30;;;;;;;18.52;39.35;102857.88;5142946;27;20039;-27
2022/01/22 00:45:56;;;;;;;0.30;0.30;;;;;;;18.53;39.44;102853.19;5145257;27;20054;-27
2022/01/22 00:48:22;;;;;;;0.22;0.22;;;;;;;18.53;39.32;102853.19;5144651;27;20043;-28
2022/01/22 00:50:51;;;;;;;0.30;0.30;;;;;;;18.52;39.32;102855.13;5145060;27;20038;-27
2022/01/22 00:53:17;;;;;;;0.30;0.30;;;;;;;18.52;39.36;102860.63;5142105;27;20038;-27
2022/01/22 00:55:42;;;;;;;0.30;0.30;;;;;;;18.52;39.57;102857.00;5145740;27;20383;-27
2022/01/22 00:58:08;;;;;;;0.40;0.40;;;;;;;18.53;39.30;102861.47;5145783;27;20039;-27
2022/01/22 01:00:34;;;;;;;0.30;0.30;;;;;;;18.51;39.35;102861.69;5127819;27;20035;-27
2022/01/22 01:03:00;;;;;;;0.20;0.20;;;;;;;18.52;39.39;102860.63;5124689;27;20058;-27
2022/01/22 01:05:26;;;;;;;0.30;0.30;;;;;;;18.52;39.63;102851.47;5125494;27;20438;-27
2022/01/22 01:07:51;;;;;;;0.30;0.30;;;;;;;18.51;39.36;102853.41;5142367;27;20703;-27
2022/01/22 01:10:19;;;;;;;0.25;0.25;;;;;;;18.51;39.52;102849.81;5144154;27;20053;-27
2022/01/22 01:12:45;;;;;;;0.20;0.20;;;;;;;18.51;39.47;102845.13;5124994;27;20046;-27
2022/01/22 01:32:10;;;;;;;0.32;0.32;;;;;;;18.50;39.42;102846.19;5128710;27;20042;-27
2022/01/22 01:32:28;;;;;;;0.20;0.20;;;;;;;18.50;39.49;102842.59;5127702;27;20051;-27
2022/01/22 01:34:40;;;;;;;0.22;0.22;;;;;;;18.49;39.30;102852.81;5129693;27;20087;-27
2022/01/22 01:37:06;;;;;;;0.28;0.28;;;;;;;18.50;39.45;102862.75;5143316;27;21175;-27
2022/01/22 01:39:34;;;;;;;0.30;0.30;;;;;;;18.50;39.71;102859.16;5143048;27;20045;-27
2022/01/22 01:42:05;;;;;;;0.20;0.20;;;;;;;18.49;39.47;102861.06;5142203;27;20047;-27
2022/01/22 01:44:31;;;;;;;0.30;0.30;;;;;;;18.49;39.30;102855.56;5126203;27;20470;-27
2022/01/22 01:47:00;;;;;;;0.22;0.22;;;;;;;18.49;39.37;102852.81;5142987;27;20054;-27
2022/01/22 01:49:26;;;;;;;0.30;0.30;;;;;;;18.50;39.38;102853.63;5143607;27;20052;-27
2022/01/22 01:51:55;;;;;;;0.20;0.20;;;;;;;18.50;39.44;102845.38;5143278;27;20038;-27
2022/01/22 01:54:46;;;;;;;0.20;0.20;;;;;;;18.50;39.39;102846.19;5126680;27;20050;-27
2022/01/22 01:59:52;;;;;;;0.20;0.20;;;;;;;18.49;39.39;102840.94;5128820;27;20669;-27
2022/01/22 02:02:19;;;;;;;0.20;0.20;;;;;;;18.48;39.61;102842.84;5123634;27;20137;-27
2022/01/22 02:04:45;;;;;;;0.20;0.20;;;;;;;18.49;39.45;102847.28;5123532;27;20386;-27
2022/01/22 02:07:10;;;;;;;0.20;0.20;;;;;;;18.49;39.47;102855.56;5142654;27;20055;-27
2022/01/22 02:09:37;;;;;;;0.20;0.20;;;;;;;18.48;39.39;102859.41;5141862;27;20070;-27
2022/01/22 02:12:19;;;;;;;0.20;0.20;;;;;;;18.48;39.80;102858.53;5142945;27;20041;-27
2022/01/22 02:25:48;;;;;;;0.20;0.20;;;;;;;18.48;39.55;102837.34;5126547;27;20045;-28
2022/01/22 02:28:13;;;;;;;0.20;0.20;;;;;;;18.48;39.27;102836.47;5142715;27;20039;-27
2022/01/22 02:30:43;;;;;;;0.20;0.20;;;;;;;18.48;39.36;102833.69;5141402;27;20111;-27
2022/01/22 02:33:39;;;;;;;0.20;0.20;;;;;;;18.48;39.46;102836.47;5140985;27;20035;-27
2022/01/22 02:36:01;;;;;;;0.28;0.28;;;;;;;18.47;39.43;102830.09;5128006;27;20057;-27
2022/01/22 02:41:17;;;;;;;0.20;0.20;;;;;;;18.48;39.54;102829.06;5111386;27;20053;-27
2022/01/22 02:43:42;;;;;;;0.30;0.30;;;;;;;18.48;39.49;102831.81;5142825;27;20077;-27
2022/01/22 02:46:09;;;;;;;0.30;0.30;;;;;;;18.48;39.29;102819.91;5142710;27;20481;-27
2022/01/22 02:48:35;;;;;;;0.20;0.20;;;;;;;18.46;39.49;102811.88;5143156;27;20041;-27
2022/01/22 02:51:00;;;;;;;0.30;0.30;;;;;;;18.47;39.46;102823.75;5142575;27;20047;-27
2022/01/22 02:53:27;;;;;;;0.20;0.20;;;;;;;18.46;39.60;102820.16;5140162;27;20051;-27
2022/01/22 02:55:53;;;;;;;0.22;0.22;;;;;;;18.47;39.43;102826.50;5142838;27;20039;-27
2022/01/22 02:58:19;;;;;;;0.20;0.20;;;;;;;18.47;39.51;102827.34;5143822;27;20038;-27
2022/01/22 03:00:45;;;;;;;0.30;0.30;;;;;;;18.47;39.48;102830.09;5112226;27;20057;-27
2022/01/22 03:03:11;;;;;;;0.25;0.25;;;;;;;18.48;39.58;102828.19;5140609;27;20083;-27
2022/01/22 03:05:36;;;;;;;0.20;0.20;;;;;;;18.47;39.30;102830.09;5122428;27;20405;-27
2022/01/22 03:08:06;;;;;;;0.30;0.30;;;;;;;18.46;39.39;102828.41;5143256;27;20402;-27
2022/01/22 03:10:32;;;;;;;0.28;0.28;;;;;;;18.46;39.51;102827.59;5143316;27;20049;-27
2022/01/22 03:13:18;;;;;;;0.20;0.20;;;;;;;18.46;39.67;102827.59;5142210;27;20038;-26
2022/01/22 03:21:37;;;;;;;0.20;0.20;;;;;;;18.46;39.50;102831.19;5126818;27;20035;-27
2022/01/22 03:29:34;;;;;;;0.22;0.22;;;;;;;18.45;39.58;102832.25;5126520;27;20046;-27
2022/01/22 03:32:00;;;;;;;0.20;0.20;;;;;;;18.45;39.41;102826.75;5142761;27;20073;-27
2022/01/22 03:34:28;;;;;;;0.30;0.30;;;;;;;18.46;39.59;102839.47;5142471;27;20046;-27
2022/01/22 03:36:53;;;;;;;0.20;0.20;;;;;;;18.46;39.54;102828.41;5124759;27;20057;-27
2022/01/22 03:39:19;;;;;;;0.30;0.30;;;;;;;18.46;39.45;102833.94;5142725;27;20043;-27
2022/01/22 03:41:44;;;;;;;0.30;0.30;;;;;;;18.46;39.50;102835.84;5145659;27;20035;-27
2022/01/22 03:44:11;;;;;;;0.30;0.30;;;;;;;18.47;39.43;102834.78;5145239;27;20435;-27
2022/01/22 03:46:38;;;;;;;0.25;0.25;;;;;;;18.46;39.40;102842.22;5147031;27;20078;-27
2022/01/22 03:49:04;;;;;;;0.20;0.20;;;;;;;18.45;39.51;102839.69;5144565;27;20050;-27
2022/01/22 03:51:30;;;;;;;0.20;0.20;;;;;;;18.46;39.56;102844.13;5147179;27;20111;-27
2022/01/22 03:53:56;;;;;;;0.20;0.20;;;;;;;18.47;39.54;102840.28;5142230;27;20042;-27
2022/01/22 03:56:24;;;;;;;0.20;0.20;;;;;;;18.45;39.43;102846.06;5103426;27;20054;-27
2022/01/22 03:58:50;;;;;;;0.20;0.20;;;;;;;18.45;39.48;102846.06;5146023;27;20049;-27
2022/01/22 04:02:14;;;;;;;0.20;0.20;;;;;;;18.46;39.73;102841.38;5144754;27;20047;-27
2022/01/22 04:04:07;;;;;;;0.20;0.20;;;;;;;18.45;39.54;102836.94;5128272;27;20081;-27
2022/01/22 04:09:15;;;;;;;0.30;0.30;;;;;;;18.46;39.46;102841.38;5162163;27;20194;-27
2022/01/22 04:11:43;;;;;;;;;;;;;;;18.45;39.43;102834.19;5161201;27;20038;-27
2022/01/22 04:14:17;;;;;;;0.30;0.30;;;;;;;18.43;39.66;102834.38;5161253;27;19927;-27
2022/01/22 04:16:58;;;;;;;0.20;0.20;;;;;;;18.43;39.61;102850.94;5142543;27;20054;-28
2022/01/22 04:24:59;;;;;;;0.20;0.20;;;;;;;18.45;39.61;102848.81;5124155;27;20046;-27
2022/01/22 04:27:27;;;;;;;0.20;0.20;;;;;;;18.44;39.60;102846.28;5141207;27;20054;-28
2022/01/22 04:29:57;;;;;;;0.20;0.20;;;;;;;18.44;39.57;102838.84;5140750;27;20047;-27
2022/01/22 04:32:24;;;;;;;0.20;0.20;;;;;;;18.44;39.43;102841.63;5121452;27;20038;-27
2022/01/22 04:34:50;;;;;;;0.30;0.30;;;;;;;18.44;39.57;102840.78;5121838;27;20046;-27
2022/01/22 04:37:18;;;;;;;0.30;0.30;;;;;;;18.44;39.59;102838.84;5120441;27;20088;-27
2022/01/22 04:39:45;;;;;;;0.20;0.20;;;;;;;18.44;39.66;102844.38;5138202;27;20067;-27
2022/01/22 04:42:11;;;;;;;0.30;0.30;;;;;;;18.44;39.53;102836.09;5139805;27;20039;-27
2022/01/22 04:44:45;;;;;;;0.30;0.30;;;;;;;18.43;39.45;102842.66;5121404;27;20057;-27
2022/01/22 04:52:41;;;;;;;0.20;0.20;;;;;;;18.43;39.65;102828.88;5137156;27;20860;-27
2022/01/22 04:55:08;;;;;;;0.20;0.20;;;;;;;18.43;39.61;102828.88;5159989;27;20098;-27
2022/01/22 04:57:37;;;;;;;0.20;0.20;;;;;;;18.44;39.68;102833.34;5158796;27;20035;-28
2022/01/22 05:00:07;;;;;;;0.30;0.30;;;;;;;18.45;39.56;102831.44;5139935;27;20493;-27
2022/01/22 05:02:32;;;;;;;0.30;0.30;;;;;;;18.43;39.57;102833.56;5157353;27;20049;-27
2022/01/22 05:04:58;;;;;;;0.20;0.20;;;;;;;18.43;39.76;102842.66;5157560;27;20080;-27
2022/01/22 05:07:23;;;;;;;0.30;0.30;;;;;;;18.43;39.49;102833.56;5159719;27;20073;-27
2022/01/22 05:09:49;;;;;;;0.30;0.30;;;;;;;18.43;39.74;102839.91;5158785;27;20389;-27
2022/01/22 05:12:15;;;;;;;0.20;0.20;;;;;;;18.43;39.57;102836.31;5157802;27;20047;-27
2022/01/22 05:14:40;;;;;;;0.20;0.20;;;;;;;18.43;39.80;102831.63;5157920;27;20043;-27
2022/01/22 05:17:08;;;;;;;0.30;0.30;;;;;;;18.43;39.65;102839.06;5160369;27;20045;-27
2022/01/22 05:19:46;;;;;;;0.30;0.30;;;;;;;18.43;39.70;102844.59;5158930;27;20046;-27
2022/01/22 05:22:35;;;;;;;0.20;0.20;;;;;;;18.43;39.71;102834.38;5155236;27;20057;-27
2022/01/22 05:25:02;;;;;;;0.30;0.30;;;;;;;18.43;39.71;102842.66;5141714;27;20103;-27
2022/01/22 05:33:14;;;;;;;0.30;0.30;;;;;;;18.43;39.65;102836.31;5142116;27;20083;-27
2022/01/22 05:38:34;;;;;;;0.30;0.30;;;;;;;18.43;39.57;102852.88;5138848;27;20595;-27
2022/01/22 05:41:01;;;;;;;0.20;0.20;;;;;;;18.42;39.75;102849.25;5136088;27;20285;-27
2022/01/22 05:43:27;;;;;;;0.20;0.20;;;;;;;18.42;39.88;102852.03;5157468;27;20174;-26
2022/01/22 05:45:53;;;;;;;0.30;0.30;;;;;;;18.43;39.63;102853.69;5155701;27;20192;-26
2022/01/22 05:48:19;;;;;;;0.30;0.30;;;;;;;18.42;39.61;102854.78;5157105;27;20051;-27
2022/01/22 05:50:52;;;;;;;0.30;0.30;;;;;;;18.42;39.67;102854.78;5138203;27;20537;-28
2022/01/22 06:01:22;;;;;;;0.20;0.20;;;;;;;18.42;39.84;102852.03;5140291;27;20480;-27
2022/01/22 06:03:47;;;;;;;0.30;0.30;;;;;;;18.42;39.69;102851.19;5158967;27;20046;-27
2022/01/22 06:06:13;;;;;;;0.30;0.30;;;;;;;18.41;39.81;102850.34;5160386;27;20068;-26
2022/01/22 06:08:41;;;;;;;0.30;0.30;;;;;;;18.42;39.64;102853.94;5159678;27;20035;-27
2022/01/22 06:11:09;;;;;;;0.22;0.22;;;;;;;18.42;39.55;102853.94;5159941;27;20049;-27
2022/01/22 06:13:50;;;;;;;0.30;0.30;;;;;;;18.42;39.85;102857.53;5129334;27;20084;-27
2022/01/22 06:16:18;;;;;;;0.30;0.30;;;;;;;18.42;39.69;102860.28;5158394;27;20348;-28
2022/01/22 06:18:44;;;;;;;0.20;0.20;;;;;;;18.42;39.57;102854.78;5131130;27;20430;-27
2022/01/22 06:21:10;;;;;;;0.30;0.30;;;;;;;18.43;39.52;102863.91;5120170;27;20057;-27
2022/01/22 06:23:38;;;;;;;0.30;0.30;;;;;;;18.41;39.76;102855.03;5119148;27;20039;-26
2022/01/22 06:26:05;;;;;;;0.20;0.20;;;;;;;18.41;39.68;102855.03;5121463;27;20069;-27
2022/01/22 06:28:31;;;;;;;0.30;0.30;;;;;;;18.41;39.64;102858.63;5138710;27;20043;-27
2022/01/22 06:30:57;;;;;;;0.30;0.30;;;;;;;18.41;39.69;102858.63;5120408;27;20042;-27
2022/01/22 06:33:23;;;;;;;0.25;0.25;;;;;;;18.42;39.58;102868.56;5120878;27;20055;-27
2022/01/22 06:35:49;;;;;;;0.20;0.20;;;;;;;18.42;39.80;102881.53;5137756;27;20082;-27
2022/01/22 06:38:15;;;;;;;0.20;0.20;;;;;;;18.42;39.75;102884.28;5138539;27;20055;-27
2022/01/22 06:43:08;;;;;;;;;;;;;;;18.42;39.76;102895.31;5136895;27;20062;-27
2022/01/22 06:45:35;;;;;;;0.30;0.30;;;;;;;18.41;39.68;102893.66;5139741;27;19928;-27
2022/01/22 06:48:01;;;;;;;0.30;0.30;;;;;;;18.40;39.61;102903.00;5119058;27;20352;-27
2022/01/22 06:50:26;;;;;;;0.30;0.30;;;;;;;18.41;39.66;102900.00;5138411;27;20047;-27
2022/01/22 06:52:57;;;;;;;0.20;0.20;;;;;;;18.40;39.71;102903.00;5118269;27;20111;-28
2022/01/22 06:55:35;;;;;;;0.25;0.25;;;;;;;18.40;39.73;102898.31;5141045;27;20042;-28
2022/01/22 06:58:01;;;;;;;0.20;0.20;;;;;;;18.40;39.79;102908.50;5136889;27;20047;-28
2022/01/22 07:00:26;;;;;;;0.20;0.20;;;;;;;18.41;39.70;102919.31;5138970;27;20118;-27
2022/01/22 07:02:52;;;;;;;0.30;0.30;;;;;;;18.41;39.81;102913.78;5136740;27;20070;-26
2022/01/22 07:05:18;;;;;;;0.22;0.22;;;;;;;18.40;39.87;102914.88;5137786;27;20054;-27
2022/01/22 07:07:43;;;;;;;0.30;0.30;;;;;;;18.41;39.87;102910.19;5135998;27;20055;-27
2022/01/22 07:10:09;;;;;;;0.30;0.30;;;;;;;18.41;39.72;102916.56;5125301;28;20046;-27
2022/01/22 07:12:35;;;;;;;0.30;0.30;;;;;;;18.40;39.76;102916.78;5122742;28;20035;-27
2022/01/22 07:15:00;;;;;;;0.30;0.30;;;;;;;18.40;39.28;102920.38;5105828;28;20107;-27
2022/01/22 07:17:27;;;;;;;0.30;0.30;;;;;;;18.40;39.81;102916.78;5104317;28;20043;-27
2022/01/22 07:19:54;;;;;;;0.30;0.30;;;;;;;18.40;39.76;102920.38;5125880;28;20138;-27
2022/01/22 07:22:31;;;;;;;0.20;0.20;;;;;;;18.41;39.83;102918.47;5122164;28;20143;-27
2022/01/22 07:24:57;;;;;;;0.20;0.20;;;;;;;18.40;39.88;102920.38;5109616;28;20613;-28
2022/01/22 07:27:23;;;;;;;0.20;0.20;;;;;;;18.40;39.87;102931.44;5123663;28;20051;-28
2022/01/22 07:29:49;;;;;;;0.30;0.30;;;;;;;18.42;39.93;102934.78;5123631;28;20108;-27
2022/01/22 07:32:26;;;;;;;0.20;0.20;;;;;;;18.41;39.81;102932.25;5122118;28;20047;-27
2022/01/22 07:34:51;;;;;;;0.30;0.30;;;;;;;18.39;39.88;102940.75;5106731;28;20039;-27
2022/01/22 07:37:17;;;;;;;0.30;0.30;;;;;;;18.40;39.77;102944.38;5123650;28;20050;-26
2022/01/22 07:39:43;;;;;;;0.30;0.30;;;;;;;18.40;39.75;102949.91;5123736;28;20147;-27
2022/01/22 07:42:08;;;;;;;0.30;0.30;;;;;;;18.40;39.75;102944.38;5123033;28;20043;-27
2022/01/22 07:44:34;;;;;;;0.30;0.30;;;;;;;18.39;39.71;102942.66;5109065;28;20100;-27
2022/01/22 07:47:00;;;;;;;0.20;0.20;;;;;;;18.40;39.87;102944.38;5122540;28;20122;-27
2022/01/22 07:49:25;;;;;;;0.30;0.30;;;;;;;18.40;39.87;102941.63;5105659;28;20046;-27
2022/01/22 07:51:51;;;;;;;0.20;0.20;;;;;;;18.40;39.92;102938.88;5124019;28;20047;-27
2022/01/22 07:54:17;;;;;;;0.30;0.30;;;;;;;18.40;39.92;102930.59;5122664;28;20116;-27
2022/01/22 07:56:43;;;;;;;0.20;0.20;;;;;;;18.39;39.85;102938.00;5105896;28;20043;-27
2022/01/22 07:59:08;;;;;;;0.30;0.30;;;;;;;18.39;39.77;102938.00;5124574;28;20047;-27
2022/01/22 08:01:34;;;;;;;0.30;0.30;;;;;;;18.40;39.93;102938.88;5123764;27;20051;-27
2022/01/22 08:04:00;;;;;;;0.30;0.30;;;;;;;18.40;39.93;102947.97;5125101;28;20035;-27
2022/01/22 08:06:26;;;;;;;0.30;0.30;;;;;;;18.40;39.83;102949.91;5124328;28;20054;-26
2022/01/22 08:08:52;;;;;;;0.30;0.30;;;;;;;18.40;39.85;102949.91;5122319;28;20082;-27
2022/01/22 08:11:17;;;;;;;0.30;0.30;;;;;;;18.40;39.86;102953.50;5124182;28;20052;-27
2022/01/22 08:13:43;;;;;;;0.30;0.30;;;;;;;18.39;39.97;102954.53;5123697;28;20062;-27
2022/01/22 08:16:09;;;;;;;0.30;0.30;;;;;;;18.40;39.93;102958.16;5123883;28;20062;-28
2022/01/22 08:18:34;;;;;;;0.30;0.30;;;;;;;18.40;39.79;102952.66;5122977;28;20043;-27
2022/01/22 08:21:00;;;;;;;0.30;0.30;;;;;;;18.40;39.93;102959.00;5123426;27;20414;-27
2022/01/22 08:23:26;;;;;;;0.20;0.20;;;;;;;18.39;39.87;102954.53;5121667;28;20119;-27
2022/01/22 08:25:52;;;;;;;0.30;0.30;;;;;;;18.39;39.81;102950.94;5123537;28;20035;-27
2022/01/22 08:28:53;;;;;;;0.20;0.20;;;;;;;18.39;39.92;102954.53;5124647;28;20082;-27
2022/01/22 08:31:17;;;;;;;0.30;0.30;;;;;;;18.40;39.93;102955.41;5110038;28;20039;-27
2022/01/22 08:36:29;;;;;;;0.30;0.30;;;;;;;18.39;39.79;102957.28;5107791;28;20051;-27
2022/01/22 08:38:54;;;;;;;0.30;0.30;;;;;;;18.40;40.00;102960.94;5122080;28;20043;-27
2022/01/22 08:41:20;;;;;;;0.30;0.30;;;;;;;18.39;39.87;102961.97;5122753;28;20051;-27
2022/01/22 08:43:45;;;;;;;0.30;0.30;;;;;;;18.40;39.96;102955.41;5124060;28;20058;-27
2022/01/22 08:46:11;;;;;;;0.20;0.20;;;;;;;18.39;40.00;102957.28;5122983;28;20374;-27
2022/01/22 08:48:37;;;;;;;0.20;0.20;;;;;;;18.41;39.96;102952.41;5121507;28;20070;-27
2022/01/22 08:51:03;;;;;;;0.30;0.30;;;;;;;18.40;39.90;102952.66;5123935;28;20047;-27
2022/01/22 08:53:45;;;;;;;0.20;0.20;;;;;;;18.38;39.89;102952.84;5119696;28;20502;-27
2022/01/22 08:56:11;;;;;;;0.30;0.30;;;;;;;18.39;39.94;102946.25;5123698;28;20039;-27
2022/01/22 08:58:37;;;;;;;0.20;0.20;;;;;;;18.39;39.95;102954.53;5105712;28;20065;-27
2022/01/22 09:01:03;;;;;;;0.28;0.28;;;;;;;18.39;40.04;102957.28;5121040;28;20061;-27
2022/01/22 09:03:29;;;;;;;0.30;0.30;;;;;;;18.38;39.91;102955.63;5102432;28;20096;-27
2022/01/22 09:05:56;;;;;;;0.28;0.28;;;;;;;18.38;39.96;102961.13;5101756;28;20046;-27
2022/01/22 09:08:24;;;;;;;0.25;0.25;;;;;;;18.38;39.84;102958.38;5086761;28;20103;-27
2022/01/22 09:10:50;;;;;;;0.20;0.20;;;;;;;18.39;39.92;102954.53;5087704;28;20068;-27
2022/01/22 09:13:16;;;;;;;0.30;0.30;;;;;;;18.39;39.87;102960.06;5123448;28;20058;-28
2022/01/22 09:15:42;;;;;;;0.30;0.30;;;;;;;18.38;39.77;102963.91;5122986;28;20043;-28
2022/01/22 09:18:08;;;;;;;0.20;0.20;;;;;;;18.38;39.95;102965.81;5123462;28;20047;-28
2022/01/22 09:23:18;;;;;;;0.20;0.20;;;;;;;18.38;39.91;102974.94;5151215;27;20201;-27
2022/01/22 09:25:44;;;;;;;0.30;0.30;;;;;;;18.39;39.99;102973.00;5135917;27;20047;-27
2022/01/22 09:28:12;;;;;;;0.30;0.30;;;;;;;18.38;39.89;102980.44;5151709;27;20042;-27
2022/01/22 09:30:39;;;;;;;0.20;0.20;;;;;;;18.38;40.03;102983.19;5151958;27;20055;-27
2022/01/22 09:33:04;;;;;;;0.30;0.30;;;;;;;18.38;39.90;102980.44;5133722;27;20043;-26
2022/01/22 09:35:30;;;;;;;0.30;0.30;;;;;;;18.38;40.00;102983.19;5154180;27;20054;-27
2022/01/22 09:37:57;;;;;;;0.30;0.30;;;;;;;18.38;40.06;102985.97;5151158;27;20085;-28
2022/01/22 09:40:25;;;;;;;0.20;0.20;;;;;;;18.37;39.99;102989.81;5135772;27;20045;-26
2022/01/22 09:42:51;;;;;;;0.20;0.20;;;;;;;18.38;39.95;102976.84;5134528;27;20548;-27
2022/01/22 09:45:17;;;;;;;0.30;0.30;;;;;;;18.38;40.01;102987.88;5136396;27;20056;-28
2022/01/22 09:47:45;;;;;;;0.30;0.30;;;;;;;18.37;39.87;102989.81;5153155;27;20450;-26
2022/01/22 09:50:11;;;;;;;0.20;0.20;;;;;;;18.38;39.89;102988.72;5133345;27;20047;-27
2022/01/22 09:52:38;;;;;;;0.30;0.30;;;;;;;18.37;39.99;102998.06;5130636;27;20314;-27
2022/01/22 09:55:04;;;;;;;0.30;0.30;;;;;;;18.38;40.14;103001.69;5155735;27;20054;-27
2022/01/22 09:57:33;;;;;;;0.30;0.30;;;;;;;18.37;39.81;102991.72;5134021;27;20056;-27
2022/01/22 09:59:58;;;;;;;0.30;0.30;;;;;;;18.38;39.88;102991.47;5153962;27;20073;-27
2022/01/22 10:02:24;;;;;;;0.20;0.20;;;;;;;18.38;40.04;102996.16;5151931;27;20413;-26
2022/01/22 10:04:52;;;;;;;0.25;0.25;;;;;;;18.37;39.90;103000.00;5153276;27;20042;-27
2022/01/22 10:07:21;;;;;;;0.30;0.30;;;;;;;18.37;40.01;102997.22;5151352;27;20047;-26
2022/01/22 10:09:56;;;;;;;0.22;0.22;;;;;;;18.37;40.00;102988.97;5153367;27;20608;-27
2022/01/22 10:12:22;;;;;;;0.30;0.30;;;;;;;18.37;40.04;103000.84;5135151;27;21271;-27
2022/01/22 10:15:09;;;;;;;0.20;0.20;;;;;;;18.37;40.15;102992.56;5150328;27;20043;-27
2022/01/22 10:17:52;;;;;;;0.30;0.30;;;;;;;18.37;40.00;102991.72;5122121;27;20535;-27
2022/01/22 10:23:09;;;;;;;0.30;0.30;;;;;;;18.37;39.98;102997.22;5157231;27;20201;-27
2022/01/22 10:25:43;;;;;;;0.30;0.30;;;;;;;18.37;40.03;103000.84;5158535;27;20050;-26
2022/01/22 10:28:14;;;;;;;0.30;0.30;;;;;;;18.37;40.10;102984.28;5161268;27;20043;-26
2022/01/22 10:30:42;;;;;;;0.30;0.30;;;;;;;18.37;39.91;102986.19;5158985;27;20047;-27
2022/01/22 10:33:30;;;;;;;0.20;0.20;;;;;;;18.37;39.88;102992.56;5124161;27;20048;-26
2022/01/22 10:36:09;;;;;;;0.20;0.20;;;;;;;18.36;39.93;102998.31;5143987;27;20054;-27
2022/01/22 10:38:52;;;;;;;0.20;0.20;;;;;;;18.36;40.07;102988.13;5141432;27;20059;-27
2022/01/22 10:41:31;;;;;;;0.30;0.30;;;;;;;18.37;39.98;102988.97;5158531;27;21195;-27
2022/01/22 10:43:58;;;;;;;0.30;0.30;;;;;;;18.37;40.01;102994.47;5158995;27;20826;-27
2022/01/22 10:46:41;;;;;;;0.30;0.30;;;;;;;18.37;40.06;102992.56;5157387;27;20389;-26
2022/01/22 10:49:11;;;;;;;0.20;0.20;;;;;;;18.36;40.01;103001.06;5159884;27;20370;-27
2022/01/22 10:51:58;;;;;;;0.20;0.20;;;;;;;18.36;40.05;103001.06;5123510;27;20576;-27
2022/01/22 10:54:27;;;;;;;0.30;0.30;;;;;;;18.37;40.05;103006.34;5124716;27;20432;-27
2022/01/22 10:56:54;;;;;;;0.30;0.30;;;;;;;18.37;40.09;102992.56;5141067;27;20126;-27
2022/01/22 10:59:21;;;;;;;0.30;0.30;;;;;;;18.37;40.15;102997.22;5159098;27;20038;-27
2022/01/22 11:01:57;;;;;;;0.20;0.20;;;;;;;18.37;40.04;102987.03;5140503;27;20047;-27
2022/01/22 11:04:27;;;;;;;0.30;0.30;;;;;;;18.37;39.92;102986.19;5116490;27;20042;-27
2022/01/22 11:06:55;;;;;;;0.30;0.30;;;;;;;18.36;40.00;102993.63;5139982;27;20045;-27
2022/01/22 11:09:41;;;;;;;0.30;0.30;;;;;;;18.36;40.15;102985.38;5128815;27;20421;-27
2022/01/22 11:12:07;;;;;;;0.30;0.30;;;;;;;18.37;40.12;102991.72;5156588;27;20088;-27
2022/01/22 11:14:37;;;;;;;0.30;0.30;;;;;;;18.36;39.90;102996.41;5159379;27;20504;-27
2022/01/22 11:17:03;;;;;;;0.20;0.20;;;;;;;18.36;40.06;102993.63;5157315;27;20068;-28
2022/01/22 11:19:32;;;;;;;0.20;0.20;;;;;;;18.37;40.01;102998.06;5157928;27;20129;-27
2022/01/22 11:22:08;;;;;;;0.20;0.20;;;;;;;18.37;40.03;103000.84;5155035;27;20189;-28
2022/01/22 11:24:37;;;;;;;0.30;0.30;;;;;;;18.37;40.00;103008.28;5140101;27;20034;-27
2022/01/22 11:27:04;;;;;;;0.28;0.28;;;;;;;18.37;40.08;103005.50;5158610;27;20046;-27
2022/01/22 11:29:37;;;;;;;0.30;0.30;;;;;;;18.37;40.24;103002.75;5159387;27;20051;-28
2022/01/22 11:32:05;;;;;;;0.30;0.30;;;;;;;18.37;40.07;103000.00;5120608;27;20076;-27
2022/01/22 11:34:32;;;;;;;0.30;0.30;;;;;;;18.36;40.14;102993.63;5144912;27;20049;-27
2022/01/22 11:37:23;;;;;;;0.30;0.30;;;;;;;18.36;40.04;102987.28;5144341;27;20408;-27
2022/01/22 11:40:12;;;;;;;0.30;0.30;;;;;;;18.36;40.11;102984.53;5129921;27;20043;-27
2022/01/22 11:48:24;;;;;;;0.20;0.20;;;;;;;18.37;40.15;102991.72;5159826;27;20541;-27
2022/01/22 11:50:52;;;;;;;0.20;0.20;;;;;;;18.36;40.10;102990.03;5131614;27;20046;-27
2022/01/22 11:53:27;;;;;;;;;;;;;;;18.35;40.04;102980.91;5131040;27;20104;-27
2022/01/22 11:56:13;;;;;;;0.30;0.30;;;;;;;18.36;40.13;102984.53;5134246;27;19925;-27
2022/01/22 11:59:03;;;;;;;0.30;0.30;;;;;;;18.35;40.00;102993.84;5148545;27;20047;-27
2022/01/22 12:04:26;;;;;;;0.30;0.30;;;;;;;18.35;40.17;102985.56;5172654;27;20204;-27
2022/01/22 12:07:10;;;;;;;0.20;0.20;;;;;;;18.35;40.26;102985.56;5122260;27;20046;-27
2022/01/22 12:15:22;;;;;;;0.30;0.30;;;;;;;18.35;40.19;102988.31;5107135;27;20504;-30
2022/01/22 12:23:13;;;;;;;0.30;0.30;;;;;;;18.35;40.08;102980.03;5155585;27;20209;-27
2022/01/22 12:28:42;;;;;;;0.30;0.30;;;;;;;18.35;40.08;102978.16;5158947;27;20197;-26
2022/01/22 12:31:18;;;;;;;0.28;0.28;;;;;;;18.36;39.95;102974.31;5115731;27;20043;-27
2022/01/22 12:33:48;;;;;;;0.28;0.28;;;;;;;18.36;40.12;102982.59;5149172;27;20042;-26
2022/01/22 12:36:18;;;;;;;0.20;0.20;;;;;;;18.35;40.10;102975.41;5132750;27;20487;-27
2022/01/22 12:38:49;;;;;;;0.20;0.20;;;;;;;18.36;40.27;102990.03;5150267;27;20043;-26
2022/01/22 12:44:35;;;;;;;0.30;0.30;;;;;;;18.35;40.05;102975.41;5160816;27;20213;-26
2022/01/22 12:47:05;;;;;;;0.25;0.25;;;;;;;18.35;40.21;102980.03;5130138;27;20065;-27
2022/01/22 12:49:31;;;;;;;0.30;0.30;;;;;;;18.35;40.14;102980.91;5124983;27;20047;-27
2022/01/22 12:52:00;;;;;;;0.30;0.30;;;;;;;18.35;40.21;102985.56;5123712;27;20061;-26
2022/01/22 12:54:28;;;;;;;0.20;0.20;;;;;;;18.36;40.19;102984.53;5142920;27;21290;-27
2022/01/22 12:57:06;;;;;;;0.30;0.30;;;;;;;18.35;40.03;102977.28;5142253;27;20096;-26
2022/01/22 12:59:34;;;;;;;0.30;0.30;;;;;;;18.34;40.13;102973.69;5142788;27;20045;-26
2022/01/22 13:02:00;;;;;;;0.20;0.20;;;;;;;18.35;40.33;102977.28;5142065;27;20431;-27
2022/01/22 13:04:26;;;;;;;0.30;0.30;;;;;;;18.34;40.23;102976.44;5123519;27;20121;-26
2022/01/22 13:06:53;;;;;;;0.40;0.40;;;;;;;18.34;40.25;102979.22;5142193;27;20081;-27
2022/01/22 13:09:19;;;;;;;0.30;0.30;;;;;;;18.35;40.18;102982.81;5139831;27;20392;-27
2022/01/22 13:11:49;;;;;;;0.20;0.20;;;;;;;18.35;40.09;102982.81;5142058;27;20481;-27
2022/01/22 13:14:17;;;;;;;0.30;0.30;;;;;;;18.35;40.06;102977.28;5141309;27;20043;-26
2022/01/22 13:16:49;;;;;;;0.20;0.20;;;;;;;18.34;40.32;102973.69;5123453;27;20110;-27
2022/01/22 13:19:15;;;;;;;0.30;0.30;;;;;;;18.35;40.15;102980.91;5114408;27;20049;-26
2022/01/22 13:21:49;;;;;;;0.28;0.28;;;;;;;18.35;40.19;102983.69;5141778;27;20039;-27
2022/01/22 13:24:14;;;;;;;0.30;0.30;;;;;;;18.34;40.20;102981.97;5139805;27;20451;-28